sensor_id;sensor_type;location;lat;lon;timestamp;P1;durP1;ratioP1;P2;durP2;ratioP2
20954;SDS011;10636;19.390;-99.256;2022-12-07T03:35:40;17.88;;;10.82;;
20954;SDS011;10636;19.390;-99.256;2022-12-07T03:38:13;12.45;;;10.25;;
20954;SDS011;10636;19.390;-99.256;2022-12-07T03:40:47;12.27;;;10.75;;
20954;SDS011;10636;19.390;-99.256;2022-12-07T03:43:18;12.85;;;10.68;;
20954;SDS011;10636;19.390;-99.256;2022-12-07T03:45:50;12.35;;;10.48;;
20954;SDS011;10636;19.390;-99.256;2022-12-07T03:48:30;11.77;;;10.10;;
20954;SDS011;10636;19.390;-99.256;2022-12-07T03:51:06;10.60;;;9.35;;
20954;SDS011;10636;19.390;-99.256;2022-12-07T03:53:42;13.02;;;10.00;;
20954;SDS011;10636;19.390;-99.256;2022-12-07T03:56:16;12.20;;;9.50;;
20954;SDS011;10636;19.390;-99.256;2022-12-07T03:58:45;12.07;;;9.30;;
20954;SDS011;10636;19.390;-99.256;2022-12-07T04:01:14;12.32;;;9.32;;
20954;SDS011;10636;19.390;-99.256;2022-12-07T04:03:45;10.35;;;8.48;;
20954;SDS011;10636;19.390;-99.256;2022-12-07T04:06:15;10.13;;;8.77;;
20954;SDS011;10636;19.390;-99.256;2022-12-07T04:08:43;10.85;;;9.05;;
20954;SDS011;10636;19.390;-99.256;2022-12-07T04:11:12;9.70;;;8.48;;
20954;SDS011;10636;19.390;-99.256;2022-12-07T04:13:40;10.80;;;8.82;;
20954;SDS011;10636;19.390;-99.256;2022-12-07T04:16:25;9.63;;;8.60;;
20954;SDS011;10636;19.390;-99.256;2022-12-07T04:18:54;9.45;;;8.32;;
20954;SDS011;10636;19.390;-99.256;2022-12-07T04:21:24;10.60;;;8.82;;
20954;SDS011;10636;19.390;-99.256;2022-12-07T04:23:52;9.70;;;8.35;;
20954;SDS011;10636;19.390;-99.256;2022-12-07T04:26:21;10.20;;;8.23;;
20954;SDS011;10636;19.390;-99.256;2022-12-07T04:28:49;9.80;;;8.48;;
20954;SDS011;10636;19.390;-99.256;2022-12-07T04:31:18;10.18;;;8.68;;
20954;SDS011;10636;19.390;-99.256;2022-12-07T04:33:46;9.73;;;8.68;;
20954;SDS011;10636;19.390;-99.256;2022-12-07T04:36:15;9.85;;;8.35;;
20954;SDS011;10636;19.390;-99.256;2022-12-07T04:38:47;9.48;;;8.57;;
20954;SDS011;10636;19.390;-99.256;2022-12-07T04:41:15;8.93;;;8.02;;
20954;SDS011;10636;19.390;-99.256;2022-12-07T04:43:43;10.45;;;8.38;;
20954;SDS011;10636;19.390;-99.256;2022-12-07T04:46:12;9.02;;;8.13;;
20954;SDS011;10636;19.390;-99.256;2022-12-07T04:48:40;9.60;;;8.60;;
20954;SDS011;10636;19.390;-99.256;2022-12-07T04:51:09;8.55;;;7.82;;
20954;SDS011;10636;19.390;-99.256;2022-12-07T04:53:37;9.93;;;7.85;;
20954;SDS011;10636;19.390;-99.256;2022-12-07T04:56:07;9.00;;;7.57;;
20954;SDS011;10636;19.390;-99.256;2022-12-07T04:58:36;9.80;;;8.80;;
20954;SDS011;10636;19.390;-99.256;2022-12-07T05:01:04;8.75;;;7.85;;
20954;SDS011;10636;19.390;-99.256;2022-12-07T05:03:33;8.15;;;7.30;;
20954;SDS011;10636;19.390;-99.256;2022-12-07T05:06:02;8.88;;;7.97;;
20954;SDS011;10636;19.390;-99.256;2022-12-07T05:08:31;8.55;;;7.75;;
20954;SDS011;10636;19.390;-99.256;2022-12-07T05:11:00;9.48;;;7.75;;
20954;SDS011;10636;19.390;-99.256;2022-12-07T05:13:31;8.60;;;7.72;;
20954;SDS011;10636;19.390;-99.256;2022-12-07T05:16:00;8.98;;;7.53;;
20954;SDS011;10636;19.390;-99.256;2022-12-07T05:18:29;9.82;;;7.90;;
20954;SDS011;10636;19.390;-99.256;2022-12-07T05:20:57;8.88;;;7.82;;
20954;SDS011;10636;19.390;-99.256;2022-12-07T05:23:26;8.50;;;7.70;;
20954;SDS011;10636;19.390;-99.256;2022-12-07T05:25:54;8.60;;;7.50;;
20954;SDS011;10636;19.390;-99.256;2022-12-07T05:28:24;8.38;;;7.50;;
20954;SDS011;10636;19.390;-99.256;2022-12-07T05:30:54;8.20;;;7.40;;
20954;SDS011;10636;19.390;-99.256;2022-12-07T05:33:23;8.38;;;7.55;;
20954;SDS011;10636;19.390;-99.256;2022-12-07T05:35:51;8.85;;;7.22;;
20954;SDS011;10636;19.390;-99.256;2022-12-07T05:38:19;9.50;;;7.80;;
20954;SDS011;10636;19.390;-99.256;2022-12-07T05:40:48;8.77;;;7.90;;
20954;SDS011;10636;19.390;-99.256;2022-12-07T05:43:16;8.68;;;7.78;;
20954;SDS011;10636;19.390;-99.256;2022-12-07T05:45:45;8.57;;;7.57;;
20954;SDS011;10636;19.390;-99.256;2022-12-07T05:48:15;8.73;;;7.90;;
20954;SDS011;10636;19.390;-99.256;2022-12-07T05:50:43;8.20;;;7.38;;
20954;SDS011;10636;19.390;-99.256;2022-12-07T05:53:14;8.30;;;7.50;;
20954;SDS011;10636;19.390;-99.256;2022-12-07T05:55:43;8.27;;;7.45;;
20954;SDS011;10636;19.390;-99.256;2022-12-07T05:58:11;10.13;;;7.55;;
20954;SDS011;10636;19.390;-99.256;2022-12-07T06:00:56;8.05;;;7.35;;
20954;SDS011;10636;19.390;-99.256;2022-12-07T06:03:26;8.27;;;7.32;;
20954;SDS011;10636;19.390;-99.256;2022-12-07T06:05:55;8.55;;;7.40;;
20954;SDS011;10636;19.390;-99.256;2022-12-07T06:08:23;8.43;;;7.53;;
20954;SDS011;10636;19.390;-99.256;2022-12-07T06:10:52;8.27;;;7.47;;
20954;SDS011;10636;19.390;-99.256;2022-12-07T06:13:40;8.18;;;7.38;;
20954;SDS011;10636;19.390;-99.256;2022-12-07T06:16:08;8.23;;;7.43;;
20954;SDS011;10636;19.390;-99.256;2022-12-07T06:18:38;8.13;;;7.07;;
20954;SDS011;10636;19.390;-99.256;2022-12-07T06:21:06;8.60;;;7.70;;
20954;SDS011;10636;19.390;-99.256;2022-12-07T06:23:34;8.48;;;7.57;;
20954;SDS011;10636;19.390;-99.256;2022-12-07T06:26:03;7.80;;;7.10;;
20954;SDS011;10636;19.390;-99.256;2022-12-07T06:28:31;8.43;;;7.63;;
20954;SDS011;10636;19.390;-99.256;2022-12-07T06:31:00;8.18;;;7.38;;
20954;SDS011;10636;19.390;-99.256;2022-12-07T06:33:29;8.27;;;7.47;;
20954;SDS011;10636;19.390;-99.256;2022-12-07T06:35:59;8.48;;;7.55;;
20954;SDS011;10636;19.390;-99.256;2022-12-07T06:38:28;8.70;;;7.82;;
20954;SDS011;10636;19.390;-99.256;2022-12-07T06:40:56;8.60;;;7.70;;
20954;SDS011;10636;19.390;-99.256;2022-12-07T06:43:25;8.10;;;7.30;;
20954;SDS011;10636;19.390;-99.256;2022-12-07T06:45:53;7.88;;;7.18;;
20954;SDS011;10636;19.390;-99.256;2022-12-07T06:48:21;8.00;;;7.30;;
20954;SDS011;10636;19.390;-99.256;2022-12-07T06:50:50;8.13;;;7.35;;
20954;SDS011;10636;19.390;-99.256;2022-12-07T06:53:20;8.48;;;7.65;;
20954;SDS011;10636;19.390;-99.256;2022-12-07T06:55:49;8.05;;;7.35;;
20954;SDS011;10636;19.390;-99.256;2022-12-07T06:58:17;8.65;;;7.82;;
20954;SDS011;10636;19.390;-99.256;2022-12-07T07:00:47;8.95;;;7.95;;
20954;SDS011;10636;19.390;-99.256;2022-12-07T07:03:16;9.00;;;7.93;;
20954;SDS011;10636;19.390;-99.256;2022-12-07T07:05:45;8.40;;;7.60;;
20954;SDS011;10636;19.390;-99.256;2022-12-07T07:08:13;8.80;;;8.00;;
20954;SDS011;10636;19.390;-99.256;2022-12-07T07:10:44;8.60;;;7.90;;
20954;SDS011;10636;19.390;-99.256;2022-12-07T07:13:12;8.20;;;7.40;;
20954;SDS011;10636;19.390;-99.256;2022-12-07T07:15:40;8.63;;;7.82;;
20954;SDS011;10636;19.390;-99.256;2022-12-07T07:18:09;9.40;;;7.72;;
20954;SDS011;10636;19.390;-99.256;2022-12-07T07:20:37;7.82;;;7.13;;
20954;SDS011;10636;19.390;-99.256;2022-12-07T07:23:06;8.20;;;7.50;;
20954;SDS011;10636;19.390;-99.256;2022-12-07T07:25:35;8.73;;;7.82;;
20954;SDS011;10636;19.390;-99.256;2022-12-07T07:28:05;8.52;;;7.72;;
20954;SDS011;10636;19.390;-99.256;2022-12-07T07:30:33;8.38;;;7.50;;
20954;SDS011;10636;19.390;-99.256;2022-12-07T07:33:02;8.75;;;7.93;;
20954;SDS011;10636;19.390;-99.256;2022-12-07T07:35:31;8.00;;;7.35;;
20954;SDS011;10636;19.390;-99.256;2022-12-07T07:38:01;8.02;;;7.28;;
20954;SDS011;10636;19.390;-99.256;2022-12-07T07:40:30;7.88;;;7.22;;
20954;SDS011;10636;19.390;-99.256;2022-12-07T07:42:59;9.50;;;7.75;;
20954;SDS011;10636;19.390;-99.256;2022-12-07T07:45:30;8.52;;;7.72;;
20954;SDS011;10636;19.390;-99.256;2022-12-07T07:47:59;8.10;;;7.30;;
20954;SDS011;10636;19.390;-99.256;2022-12-07T07:50:27;8.88;;;7.97;;
20954;SDS011;10636;19.390;-99.256;2022-12-07T07:52:56;8.00;;;7.25;;
20954;SDS011;10636;19.390;-99.256;2022-12-07T07:55:25;8.25;;;7.45;;
20954;SDS011;10636;19.390;-99.256;2022-12-07T07:57:53;7.85;;;7.05;;
20954;SDS011;10636;19.390;-99.256;2022-12-07T08:00:22;8.35;;;7.55;;
20954;SDS011;10636;19.390;-99.256;2022-12-07T08:02:52;8.13;;;7.43;;
20954;SDS011;10636;19.390;-99.256;2022-12-07T08:05:21;8.43;;;7.63;;
20954;SDS011;10636;19.390;-99.256;2022-12-07T08:07:49;7.88;;;7.18;;
20954;SDS011;10636;19.390;-99.256;2022-12-07T08:10:18;8.05;;;7.35;;
20954;SDS011;10636;19.390;-99.256;2022-12-07T08:12:46;7.45;;;6.75;;
20954;SDS011;10636;19.390;-99.256;2022-12-07T08:15:32;8.32;;;7.45;;
20954;SDS011;10636;19.390;-99.256;2022-12-07T08:18:02;7.97;;;7.18;;
20954;SDS011;10636;19.390;-99.256;2022-12-07T08:20:30;7.65;;;6.95;;
20954;SDS011;10636;19.390;-99.256;2022-12-07T08:23:00;7.80;;;7.10;;
20954;SDS011;10636;19.390;-99.256;2022-12-07T08:25:29;7.65;;;7.03;;
20954;SDS011;10636;19.390;-99.256;2022-12-07T08:27:58;8.35;;;7.45;;
20954;SDS011;10636;19.390;-99.256;2022-12-07T08:30:27;7.60;;;6.80;;
20954;SDS011;10636;19.390;-99.256;2022-12-07T08:32:56;7.72;;;6.90;;
20954;SDS011;10636;19.390;-99.256;2022-12-07T08:35:27;8.00;;;7.20;;
20954;SDS011;10636;19.390;-99.256;2022-12-07T08:37:55;7.70;;;7.00;;
20954;SDS011;10636;19.390;-99.256;2022-12-07T08:40:24;7.43;;;6.72;;
20954;SDS011;10636;19.390;-99.256;2022-12-07T08:42:52;7.63;;;6.88;;
20954;SDS011;10636;19.390;-99.256;2022-12-07T08:45:21;7.80;;;7.10;;
20954;SDS011;10636;19.390;-99.256;2022-12-07T08:47:50;7.32;;;6.63;;
20954;SDS011;10636;19.390;-99.256;2022-12-07T08:50:22;7.47;;;6.78;;
20954;SDS011;10636;19.390;-99.256;2022-12-07T08:52:53;7.93;;;7.15;;
20954;SDS011;10636;19.390;-99.256;2022-12-07T08:55:24;7.45;;;6.75;;
20954;SDS011;10636;19.390;-99.256;2022-12-07T08:57:53;7.60;;;6.78;;
20954;SDS011;10636;19.390;-99.256;2022-12-07T09:00:22;7.85;;;7.15;;
20954;SDS011;10636;19.390;-99.256;2022-12-07T09:02:51;7.70;;;7.00;;
20954;SDS011;10636;19.390;-99.256;2022-12-07T09:05:20;7.82;;;7.10;;
20954;SDS011;10636;19.390;-99.256;2022-12-07T09:07:49;7.45;;;6.72;;
20954;SDS011;10636;19.390;-99.256;2022-12-07T09:10:22;7.25;;;6.55;;
20954;SDS011;10636;19.390;-99.256;2022-12-07T09:12:51;7.82;;;7.13;;
20954;SDS011;10636;19.390;-99.256;2022-12-07T09:15:19;7.32;;;6.63;;
20954;SDS011;10636;19.390;-99.256;2022-12-07T09:17:48;7.15;;;6.55;;
20954;SDS011;10636;19.390;-99.256;2022-12-07T09:20:16;6.90;;;6.30;;
20954;SDS011;10636;19.390;-99.256;2022-12-07T09:22:45;7.30;;;6.60;;
20954;SDS011;10636;19.390;-99.256;2022-12-07T09:25:15;7.18;;;6.47;;
20954;SDS011;10636;19.390;-99.256;2022-12-07T09:27:43;7.30;;;6.60;;
20954;SDS011;10636;19.390;-99.256;2022-12-07T09:30:12;7.20;;;6.50;;
20954;SDS011;10636;19.390;-99.256;2022-12-07T09:32:41;6.70;;;6.10;;
20954;SDS011;10636;19.390;-99.256;2022-12-07T09:35:09;7.15;;;6.55;;
20954;SDS011;10636;19.390;-99.256;2022-12-07T09:37:37;7.25;;;6.57;;
20954;SDS011;10636;19.390;-99.256;2022-12-07T09:40:06;6.97;;;6.38;;
20954;SDS011;10636;19.390;-99.256;2022-12-07T09:42:37;7.07;;;6.47;;
20954;SDS011;10636;19.390;-99.256;2022-12-07T09:45:12;7.10;;;6.40;;
20954;SDS011;10636;19.390;-99.256;2022-12-07T09:47:42;7.15;;;6.28;;
20954;SDS011;10636;19.390;-99.256;2022-12-07T09:50:13;7.20;;;6.60;;
20954;SDS011;10636;19.390;-99.256;2022-12-07T09:52:43;7.10;;;6.40;;
20954;SDS011;10636;19.390;-99.256;2022-12-07T09:55:14;6.75;;;6.15;;
20954;SDS011;10636;19.390;-99.256;2022-12-07T09:57:46;6.57;;;5.95;;
20954;SDS011;10636;19.390;-99.256;2022-12-07T10:00:15;6.68;;;6.07;;
20954;SDS011;10636;19.390;-99.256;2022-12-07T10:02:47;6.50;;;5.90;;
20954;SDS011;10636;19.390;-99.256;2022-12-07T10:05:20;7.20;;;6.55;;
20954;SDS011;10636;19.390;-99.256;2022-12-07T10:07:53;6.60;;;6.10;;
20954;SDS011;10636;19.390;-99.256;2022-12-07T10:10:23;7.35;;;6.63;;
20954;SDS011;10636;19.390;-99.256;2022-12-07T10:12:55;6.63;;;5.93;;
20954;SDS011;10636;19.390;-99.256;2022-12-07T10:15:42;6.90;;;6.20;;
20954;SDS011;10636;19.390;-99.256;2022-12-07T10:21:04;7.10;;;5.93;;
20954;SDS011;10636;19.390;-99.256;2022-12-07T10:23:39;6.50;;;5.90;;
20954;SDS011;10636;19.390;-99.256;2022-12-07T10:26:21;6.68;;;6.00;;
20954;SDS011;10636;19.390;-99.256;2022-12-07T10:28:58;6.72;;;6.13;;
20954;SDS011;10636;19.390;-99.256;2022-12-07T10:31:28;6.70;;;6.10;;
20954;SDS011;10636;19.390;-99.256;2022-12-07T10:33:57;6.35;;;5.85;;
20954;SDS011;10636;19.390;-99.256;2022-12-07T10:36:27;6.50;;;5.90;;
20954;SDS011;10636;19.390;-99.256;2022-12-07T10:39:03;6.20;;;5.70;;
20954;SDS011;10636;19.390;-99.256;2022-12-07T10:41:49;6.50;;;6.00;;
20954;SDS011;10636;19.390;-99.256;2022-12-07T10:44:23;6.57;;;6.07;;
20954;SDS011;10636;19.390;-99.256;2022-12-07T10:47:01;6.45;;;5.90;;
20954;SDS011;10636;19.390;-99.256;2022-12-07T10:49:50;6.43;;;5.93;;
20954;SDS011;10636;19.390;-99.256;2022-12-07T10:52:44;6.40;;;5.80;;
20954;SDS011;10636;19.390;-99.256;2022-12-07T10:55:23;6.50;;;5.90;;
20954;SDS011;10636;19.390;-99.256;2022-12-07T10:58:07;6.70;;;6.10;;
20954;SDS011;10636;19.390;-99.256;2022-12-07T11:00:55;6.60;;;5.93;;
20954;SDS011;10636;19.390;-99.256;2022-12-07T11:03:43;5.63;;;5.13;;
20954;SDS011;10636;19.390;-99.256;2022-12-07T11:06:23;6.35;;;5.82;;
20954;SDS011;10636;19.390;-99.256;2022-12-07T11:09:02;6.25;;;5.75;;
20954;SDS011;10636;19.390;-99.256;2022-12-07T11:11:56;6.43;;;5.82;;
20954;SDS011;10636;19.390;-99.256;2022-12-07T11:14:33;6.00;;;5.50;;
20954;SDS011;10636;19.390;-99.256;2022-12-07T11:17:09;5.75;;;5.15;;
20954;SDS011;10636;19.390;-99.256;2022-12-07T11:19:50;6.25;;;5.65;;
20954;SDS011;10636;19.390;-99.256;2022-12-07T11:22:31;6.10;;;5.60;;
20954;SDS011;10636;19.390;-99.256;2022-12-07T11:25:17;6.20;;;5.60;;
20954;SDS011;10636;19.390;-99.256;2022-12-07T11:27:55;6.97;;;6.32;;
20954;SDS011;10636;19.390;-99.256;2022-12-07T11:30:49;6.00;;;5.50;;
20954;SDS011;10636;19.390;-99.256;2022-12-07T11:33:27;6.95;;;6.35;;
20954;SDS011;10636;19.390;-99.256;2022-12-07T11:36:06;8.95;;;6.60;;
20954;SDS011;10636;19.390;-99.256;2022-12-07T11:38:45;7.82;;;6.65;;
20954;SDS011;10636;19.390;-99.256;2022-12-07T11:41:20;7.82;;;6.70;;
20954;SDS011;10636;19.390;-99.256;2022-12-07T11:43:53;9.23;;;6.70;;
20954;SDS011;10636;19.390;-99.256;2022-12-07T11:46:27;7.80;;;6.72;;
20954;SDS011;10636;19.390;-99.256;2022-12-07T11:49:10;8.05;;;6.75;;
20954;SDS011;10636;19.390;-99.256;2022-12-07T11:51:43;7.35;;;6.55;;
20954;SDS011;10636;19.390;-99.256;2022-12-07T11:54:15;7.03;;;6.32;;
20954;SDS011;10636;19.390;-99.256;2022-12-07T11:56:49;8.93;;;7.05;;
20954;SDS011;10636;19.390;-99.256;2022-12-07T11:59:22;7.95;;;6.50;;
20954;SDS011;10636;19.390;-99.256;2022-12-07T12:01:57;7.65;;;6.80;;
20954;SDS011;10636;19.390;-99.256;2022-12-07T12:04:43;8.60;;;7.38;;
20954;SDS011;10636;19.390;-99.256;2022-12-07T12:07:19;9.27;;;7.25;;
20954;SDS011;10636;19.390;-99.256;2022-12-07T12:09:50;8.07;;;7.28;;
20954;SDS011;10636;19.390;-99.256;2022-12-07T12:12:35;10.57;;;7.47;;
20954;SDS011;10636;19.390;-99.256;2022-12-07T12:15:26;9.45;;;7.55;;
20954;SDS011;10636;19.390;-99.256;2022-12-07T12:18:10;9.55;;;7.30;;
20954;SDS011;10636;19.390;-99.256;2022-12-07T12:21:02;9.25;;;7.40;;
20954;SDS011;10636;19.390;-99.256;2022-12-07T12:23:36;8.93;;;6.95;;
20954;SDS011;10636;19.390;-99.256;2022-12-07T12:26:13;7.90;;;6.90;;
20954;SDS011;10636;19.390;-99.256;2022-12-07T12:28:50;9.40;;;7.20;;
20954;SDS011;10636;19.390;-99.256;2022-12-07T12:37:17;8.52;;;7.05;;
20954;SDS011;10636;19.390;-99.256;2022-12-07T12:46:36;8.63;;;6.95;;
20954;SDS011;10636;19.390;-99.256;2022-12-07T12:55:21;8.93;;;7.13;;
20954;SDS011;10636;19.390;-99.256;2022-12-07T12:58:31;8.30;;;7.10;;
20954;SDS011;10636;19.390;-99.256;2022-12-07T13:04:14;7.50;;;6.80;;
20954;SDS011;10636;19.390;-99.256;2022-12-07T13:06:59;7.43;;;6.65;;
20954;SDS011;10636;19.390;-99.256;2022-12-07T13:09:28;7.60;;;6.88;;
20954;SDS011;10636;19.390;-99.256;2022-12-07T13:12:02;7.40;;;6.50;;
20954;SDS011;10636;19.390;-99.256;2022-12-07T13:14:42;7.60;;;6.80;;
20954;SDS011;10636;19.390;-99.256;2022-12-07T13:20:45;8.90;;;6.65;;
20954;SDS011;10636;19.390;-99.256;2022-12-07T13:23:17;8.35;;;7.05;;
20954;SDS011;10636;19.390;-99.256;2022-12-07T13:26:00;9.15;;;7.07;;
20954;SDS011;10636;19.390;-99.256;2022-12-07T13:28:42;8.27;;;6.95;;
20954;SDS011;10636;19.390;-99.256;2022-12-07T13:31:14;8.82;;;6.93;;
20954;SDS011;10636;19.390;-99.256;2022-12-07T13:33:50;8.55;;;6.68;;
20954;SDS011;10636;19.390;-99.256;2022-12-07T13:36:20;7.70;;;6.82;;
20954;SDS011;10636;19.390;-99.256;2022-12-07T13:38:52;7.70;;;6.90;;
20954;SDS011;10636;19.390;-99.256;2022-12-07T13:41:22;8.00;;;7.20;;
20954;SDS011;10636;19.390;-99.256;2022-12-07T13:43:58;9.18;;;7.05;;
20954;SDS011;10636;19.390;-99.256;2022-12-07T13:46:35;8.07;;;7.28;;
20954;SDS011;10636;19.390;-99.256;2022-12-07T13:49:17;9.18;;;7.00;;
20954;SDS011;10636;19.390;-99.256;2022-12-07T13:51:48;8.27;;;6.63;;
20954;SDS011;10636;19.390;-99.256;2022-12-07T13:54:17;8.32;;;6.53;;
20954;SDS011;10636;19.390;-99.256;2022-12-07T13:56:47;8.82;;;7.30;;
20954;SDS011;10636;19.390;-99.256;2022-12-07T13:59:21;7.88;;;7.07;;
20954;SDS011;10636;19.390;-99.256;2022-12-07T14:01:51;7.50;;;6.80;;
20954;SDS011;10636;19.390;-99.256;2022-12-07T14:04:29;8.73;;;6.90;;
20954;SDS011;10636;19.390;-99.256;2022-12-07T14:06:59;9.18;;;6.80;;
20954;SDS011;10636;19.390;-99.256;2022-12-07T14:09:53;7.63;;;6.50;;
20954;SDS011;10636;19.390;-99.256;2022-12-07T14:12:23;9.57;;;7.20;;
20954;SDS011;10636;19.390;-99.256;2022-12-07T14:14:54;9.02;;;8.13;;
20954;SDS011;10636;19.390;-99.256;2022-12-07T14:17:24;11.15;;;8.25;;
20954;SDS011;10636;19.390;-99.256;2022-12-07T14:19:55;11.13;;;8.50;;
20954;SDS011;10636;19.390;-99.256;2022-12-07T14:22:29;9.88;;;8.88;;
20954;SDS011;10636;19.390;-99.256;2022-12-07T14:27:53;11.13;;;9.02;;
20954;SDS011;10636;19.390;-99.256;2022-12-07T14:30:26;10.30;;;9.20;;
20954;SDS011;10636;19.390;-99.256;2022-12-07T14:32:57;10.55;;;9.30;;
20954;SDS011;10636;19.390;-99.256;2022-12-07T14:35:27;10.35;;;9.30;;
20954;SDS011;10636;19.390;-99.256;2022-12-07T14:37:56;12.23;;;10.07;;
20954;SDS011;10636;19.390;-99.256;2022-12-07T14:40:26;11.23;;;9.52;;
20954;SDS011;10636;19.390;-99.256;2022-12-07T14:42:56;12.25;;;9.63;;
20954;SDS011;10636;19.390;-99.256;2022-12-07T14:45:29;14.02;;;10.10;;
20954;SDS011;10636;19.390;-99.256;2022-12-07T14:47:58;11.82;;;10.60;;
20954;SDS011;10636;19.390;-99.256;2022-12-07T14:50:27;13.35;;;10.25;;
20954;SDS011;10636;19.390;-99.256;2022-12-07T14:53:11;13.80;;;10.05;;
20954;SDS011;10636;19.390;-99.256;2022-12-07T14:55:41;11.35;;;10.13;;
20954;SDS011;10636;19.390;-99.256;2022-12-07T14:58:12;11.38;;;10.05;;
20954;SDS011;10636;19.390;-99.256;2022-12-07T15:00:43;10.27;;;9.27;;
20954;SDS011;10636;19.390;-99.256;2022-12-07T15:03:13;11.10;;;9.93;;
20954;SDS011;10636;19.390;-99.256;2022-12-07T15:05:41;12.70;;;9.93;;
20954;SDS011;10636;19.390;-99.256;2022-12-07T15:08:10;12.60;;;10.82;;
20954;SDS011;10636;19.390;-99.256;2022-12-07T15:10:40;12.80;;;11.25;;
20954;SDS011;10636;19.390;-99.256;2022-12-07T15:13:08;15.45;;;10.65;;
20954;SDS011;10636;19.390;-99.256;2022-12-07T15:15:55;11.82;;;10.63;;
20954;SDS011;10636;19.390;-99.256;2022-12-07T15:18:24;11.50;;;10.30;;
20954;SDS011;10636;19.390;-99.256;2022-12-07T15:20:52;13.68;;;11.65;;
20954;SDS011;10636;19.390;-99.256;2022-12-07T15:23:21;14.88;;;11.95;;
20954;SDS011;10636;19.390;-99.256;2022-12-07T15:25:49;15.15;;;11.88;;
20954;SDS011;10636;19.390;-99.256;2022-12-07T15:28:18;14.18;;;12.82;;
20954;SDS011;10636;19.390;-99.256;2022-12-07T15:30:46;17.83;;;12.95;;
20954;SDS011;10636;19.390;-99.256;2022-12-07T15:33:16;13.70;;;12.32;;
20954;SDS011;10636;19.390;-99.256;2022-12-07T15:35:45;13.70;;;12.23;;
20954;SDS011;10636;19.390;-99.256;2022-12-07T15:38:13;14.10;;;12.65;;
20954;SDS011;10636;19.390;-99.256;2022-12-07T15:40:42;12.30;;;11.07;;
20954;SDS011;10636;19.390;-99.256;2022-12-07T15:43:14;13.30;;;11.90;;
20954;SDS011;10636;19.390;-99.256;2022-12-07T15:45:55;15.38;;;12.65;;
20954;SDS011;10636;19.390;-99.256;2022-12-07T15:48:26;13.48;;;12.18;;
20954;SDS011;10636;19.390;-99.256;2022-12-07T15:51:01;13.82;;;12.32;;
20954;SDS011;10636;19.390;-99.256;2022-12-07T15:53:31;12.30;;;10.95;;
20954;SDS011;10636;19.390;-99.256;2022-12-07T15:55:59;16.85;;;11.88;;
20954;SDS011;10636;19.390;-99.256;2022-12-07T15:58:28;11.82;;;10.63;;
20954;SDS011;10636;19.390;-99.256;2022-12-07T16:00:58;12.38;;;11.10;;
20954;SDS011;10636;19.390;-99.256;2022-12-07T16:03:28;15.38;;;11.98;;
20954;SDS011;10636;19.390;-99.256;2022-12-07T16:05:56;20.40;;;11.80;;
20954;SDS011;10636;19.390;-99.256;2022-12-07T16:08:25;12.98;;;11.57;;
20954;SDS011;10636;19.390;-99.256;2022-12-07T16:10:53;13.70;;;10.82;;
20954;SDS011;10636;19.390;-99.256;2022-12-07T16:13:22;13.15;;;11.30;;
20954;SDS011;10636;19.390;-99.256;2022-12-07T16:15:50;11.93;;;10.82;;
20954;SDS011;10636;19.390;-99.256;2022-12-07T16:18:19;11.25;;;9.98;;
20954;SDS011;10636;19.390;-99.256;2022-12-07T16:20:49;11.25;;;9.43;;
20954;SDS011;10636;19.390;-99.256;2022-12-07T16:23:17;13.30;;;12.05;;
20954;SDS011;10636;19.390;-99.256;2022-12-07T16:25:46;12.75;;;11.43;;
20954;SDS011;10636;19.390;-99.256;2022-12-07T16:28:14;13.98;;;10.88;;
20954;SDS011;10636;19.390;-99.256;2022-12-07T16:30:43;11.15;;;10.15;;
20954;SDS011;10636;19.390;-99.256;2022-12-07T16:33:11;14.07;;;10.98;;
20954;SDS011;10636;19.390;-99.256;2022-12-07T16:35:40;14.95;;;10.93;;
20954;SDS011;10636;19.390;-99.256;2022-12-07T16:38:11;67.20;;;13.75;;
20954;SDS011;10636;19.390;-99.256;2022-12-07T16:40:39;16.98;;;9.88;;
20954;SDS011;10636;19.390;-99.256;2022-12-07T16:43:07;10.52;;;8.50;;
20954;SDS011;10636;19.390;-99.256;2022-12-07T16:45:41;9.52;;;8.63;;
20954;SDS011;10636;19.390;-99.256;2022-12-07T16:48:10;12.80;;;10.90;;
20954;SDS011;10636;19.390;-99.256;2022-12-07T16:50:38;15.35;;;10.63;;
20954;SDS011;10636;19.390;-99.256;2022-12-07T16:53:07;13.73;;;11.77;;
20954;SDS011;10636;19.390;-99.256;2022-12-07T16:55:38;11.15;;;9.85;;
20954;SDS011;10636;19.390;-99.256;2022-12-07T16:58:07;11.73;;;10.50;;
20954;SDS011;10636;19.390;-99.256;2022-12-07T17:00:35;14.35;;;12.77;;
20954;SDS011;10636;19.390;-99.256;2022-12-07T17:03:04;13.13;;;11.77;;
20954;SDS011;10636;19.390;-99.256;2022-12-07T17:05:36;10.65;;;9.63;;
20954;SDS011;10636;19.390;-99.256;2022-12-07T17:08:05;10.88;;;9.63;;
20954;SDS011;10636;19.390;-99.256;2022-12-07T17:10:34;12.88;;;10.63;;
20954;SDS011;10636;19.390;-99.256;2022-12-07T17:13:05;12.45;;;10.00;;
20954;SDS011;10636;19.390;-99.256;2022-12-07T17:15:54;15.23;;;9.75;;
20954;SDS011;10636;19.390;-99.256;2022-12-07T17:18:24;12.80;;;10.43;;
20954;SDS011;10636;19.390;-99.256;2022-12-07T17:20:54;12.93;;;10.75;;
20954;SDS011;10636;19.390;-99.256;2022-12-07T17:23:23;12.48;;;10.93;;
20954;SDS011;10636;19.390;-99.256;2022-12-07T17:25:52;11.80;;;10.70;;
20954;SDS011;10636;19.390;-99.256;2022-12-07T17:28:22;13.75;;;10.88;;
20954;SDS011;10636;19.390;-99.256;2022-12-07T17:30:50;11.32;;;9.88;;
20954;SDS011;10636;19.390;-99.256;2022-12-07T17:33:18;12.50;;;11.50;;
20954;SDS011;10636;19.390;-99.256;2022-12-07T17:35:47;12.35;;;11.15;;
20954;SDS011;10636;19.390;-99.256;2022-12-07T17:38:15;13.20;;;11.90;;
20954;SDS011;10636;19.390;-99.256;2022-12-07T17:40:44;12.85;;;11.65;;
20954;SDS011;10636;19.390;-99.256;2022-12-07T17:43:12;12.45;;;11.32;;
20954;SDS011;10636;19.390;-99.256;2022-12-07T17:45:42;13.13;;;11.77;;
20954;SDS011;10636;19.390;-99.256;2022-12-07T17:48:11;13.02;;;11.93;;
20954;SDS011;10636;19.390;-99.256;2022-12-07T17:50:39;13.05;;;11.63;;
20954;SDS011;10636;19.390;-99.256;2022-12-07T17:53:35;12.35;;;11.13;;
20954;SDS011;10636;19.390;-99.256;2022-12-07T17:56:04;12.32;;;11.23;;
20954;SDS011;10636;19.390;-99.256;2022-12-07T17:58:33;12.68;;;11.30;;
20954;SDS011;10636;19.390;-99.256;2022-12-07T18:01:03;12.63;;;11.43;;
20954;SDS011;10636;19.390;-99.256;2022-12-07T18:03:36;12.20;;;11.10;;
20954;SDS011;10636;19.390;-99.256;2022-12-07T18:06:04;12.43;;;11.18;;
20954;SDS011;10636;19.390;-99.256;2022-12-07T18:08:36;11.52;;;10.52;;
20954;SDS011;10636;19.390;-99.256;2022-12-07T18:11:04;11.95;;;10.75;;
20954;SDS011;10636;19.390;-99.256;2022-12-07T18:13:33;11.55;;;10.40;;
20954;SDS011;10636;19.390;-99.256;2022-12-07T18:16:04;11.45;;;10.35;;
20954;SDS011;10636;19.390;-99.256;2022-12-07T18:18:35;14.35;;;10.57;;
20954;SDS011;10636;19.390;-99.256;2022-12-07T18:21:06;11.65;;;10.55;;
20954;SDS011;10636;19.390;-99.256;2022-12-07T18:23:38;13.88;;;11.93;;
20954;SDS011;10636;19.390;-99.256;2022-12-07T18:26:07;12.65;;;11.27;;
20954;SDS011;10636;19.390;-99.256;2022-12-07T18:28:35;11.60;;;10.23;;
20954;SDS011;10636;19.390;-99.256;2022-12-07T18:31:06;11.98;;;10.70;;
20954;SDS011;10636;19.390;-99.256;2022-12-07T18:33:37;13.52;;;11.45;;
20954;SDS011;10636;19.390;-99.256;2022-12-07T18:36:06;13.45;;;11.80;;
20954;SDS011;10636;19.390;-99.256;2022-12-07T18:38:36;12.43;;;10.98;;
20954;SDS011;10636;19.390;-99.256;2022-12-07T18:41:06;14.30;;;12.88;;
20954;SDS011;10636;19.390;-99.256;2022-12-07T18:43:35;17.25;;;15.55;;
20954;SDS011;10636;19.390;-99.256;2022-12-07T18:46:10;13.65;;;12.07;;